createdAt,value
2023-05-02T00:00:57.086Z,0.00
2023-05-02T00:01:57.153Z,0.00
2023-05-02T00:02:57.273Z,0.00
2023-05-02T00:03:57.254Z,0.00
2023-05-02T00:04:57.176Z,0.00
2023-05-02T00:05:57.215Z,0.00
2023-05-02T00:06:57.368Z,0.00
2023-05-02T00:07:57.252Z,0.00
2023-05-02T00:08:57.279Z,0.00
2023-05-02T00:09:57.294Z,0.00
2023-05-02T00:10:57.320Z,0.00
2023-05-02T00:11:57.345Z,0.00
2023-05-02T00:12:57.369Z,0.00
2023-05-02T00:13:57.392Z,0.00
2023-05-02T00:14:57.416Z,0.00
2023-05-02T00:15:57.438Z,0.00
2023-05-02T00:16:57.533Z,0.00
2023-05-02T00:17:57.511Z,0.00
2023-05-02T00:18:57.511Z,0.00
2023-05-02T00:19:57.901Z,0.00
2023-05-02T00:20:57.563Z,0.00
2023-05-02T00:21:57.595Z,0.00
2023-05-02T00:22:57.600Z,0.00
2023-05-02T00:23:57.624Z,0.00
2023-05-02T00:24:57.657Z,0.00
2023-05-02T00:25:57.670Z,0.00
2023-05-02T00:26:57.704Z,0.00
2023-05-02T00:27:57.719Z,0.00
2023-05-02T00:28:57.746Z,0.00
2023-05-02T00:29:58.289Z,0.00
2023-05-02T00:30:57.861Z,0.00
2023-05-02T00:31:57.824Z,0.00
2023-05-02T00:32:57.889Z,0.00
2023-05-02T00:33:57.859Z,0.00
2023-05-02T00:34:57.898Z,0.00
2023-05-02T00:35:57.913Z,0.00
2023-05-02T00:36:57.933Z,0.00
2023-05-02T00:37:57.955Z,0.00
2023-05-02T00:38:57.990Z,0.00
2023-05-02T00:39:58.170Z,0.00
2023-05-02T00:40:58.151Z,0.00
2023-05-02T00:41:58.141Z,0.00
2023-05-02T00:42:58.136Z,0.00
2023-05-02T00:43:58.235Z,0.00
2023-05-02T00:44:58.232Z,0.00
2023-05-02T00:45:58.222Z,0.00
2023-05-02T00:46:58.227Z,0.00
2023-05-02T00:47:58.282Z,0.00
2023-05-02T00:48:58.222Z,0.00
2023-05-02T00:49:58.617Z,0.00
2023-05-02T00:50:58.261Z,0.00
2023-05-02T00:51:58.325Z,0.00
2023-05-02T00:52:58.313Z,0.00
2023-05-02T00:53:58.357Z,0.00
2023-05-02T00:54:58.364Z,0.00
2023-05-02T00:55:58.378Z,0.00
2023-05-02T00:56:58.415Z,0.00
2023-05-02T00:57:58.425Z,0.00
2023-05-02T00:58:58.463Z,0.00
2023-05-02T00:59:58.745Z,0.00
2023-05-02T01:00:58.495Z,0.00
2023-05-02T01:01:58.532Z,0.00
2023-05-02T01:02:58.597Z,0.00
2023-05-02T01:03:58.687Z,0.00
2023-05-02T01:04:58.588Z,0.00
2023-05-02T01:05:58.654Z,0.00
2023-05-02T01:06:58.650Z,0.00
2023-05-02T01:07:58.670Z,0.00
2023-05-02T01:08:58.677Z,0.00
2023-05-02T01:09:59.182Z,0.00
2023-05-02T01:10:58.738Z,0.00
2023-05-02T01:11:58.743Z,0.00
2023-05-02T01:12:58.767Z,0.00
2023-05-02T01:13:58.791Z,0.00
2023-05-02T01:14:58.819Z,0.00
2023-05-02T01:15:58.878Z,0.00
2023-05-02T01:16:58.862Z,0.00
2023-05-02T01:17:58.943Z,0.00
2023-05-02T01:18:58.918Z,0.00
2023-05-02T01:19:59.147Z,0.00
2023-05-02T01:20:58.954Z,0.00
2023-05-02T01:21:58.974Z,0.00
2023-05-02T01:22:59.010Z,0.00
2023-05-02T01:23:59.024Z,0.00
2023-05-02T01:24:59.052Z,0.00
2023-05-02T01:25:59.088Z,0.00
2023-05-02T01:26:59.100Z,0.00
2023-05-02T01:27:59.119Z,0.00
2023-05-02T01:28:59.141Z,0.00
2023-05-02T01:29:59.393Z,0.00
2023-05-02T01:30:59.186Z,0.00
2023-05-02T01:31:59.281Z,0.00
2023-05-02T01:32:59.479Z,0.00
2023-05-02T01:33:59.274Z,0.00
2023-05-02T01:34:59.280Z,0.00
2023-05-02T01:35:59.298Z,0.00
2023-05-02T01:36:59.321Z,0.00
2023-05-02T01:37:59.345Z,0.00
2023-05-02T01:38:59.373Z,0.00
2023-05-02T01:39:59.679Z,0.00
2023-05-02T01:40:59.444Z,0.00
2023-05-02T01:41:59.437Z,0.00
2023-05-02T01:42:59.468Z,0.00
2023-05-02T01:43:59.492Z,0.00
2023-05-02T01:44:59.507Z,0.00
2023-05-02T01:45:59.534Z,0.00
2023-05-02T01:46:59.565Z,0.00
2023-05-02T01:47:59.587Z,0.00
2023-05-02T01:48:59.601Z,0.00
2023-05-02T01:49:59.853Z,0.00
2023-05-02T01:50:59.680Z,0.00
2023-05-02T01:51:59.672Z,0.00
2023-05-02T01:52:59.690Z,0.00
2023-05-02T01:53:59.720Z,0.00
2023-05-02T01:54:59.740Z,0.00
2023-05-02T01:55:59.768Z,0.00
2023-05-02T01:56:59.791Z,0.00
2023-05-02T01:57:59.811Z,0.00
2023-05-02T01:58:59.866Z,0.00
2023-05-02T02:00:00.210Z,0.00
2023-05-02T02:00:59.909Z,0.00
2023-05-02T02:01:59.899Z,0.00
2023-05-02T02:03:00.027Z,0.00
2023-05-02T02:04:00.102Z,0.00
2023-05-02T02:04:59.969Z,0.00
2023-05-02T02:06:00.013Z,0.00
2023-05-02T02:07:00.033Z,0.00
2023-05-02T02:08:00.038Z,0.00
2023-05-02T02:09:00.075Z,0.00
2023-05-02T02:10:00.335Z,0.00
2023-05-02T02:11:00.155Z,0.00
2023-05-02T02:12:00.130Z,0.00
2023-05-02T02:13:00.161Z,0.00
2023-05-02T02:14:00.173Z,0.00
2023-05-02T02:15:00.199Z,0.00
2023-05-02T02:16:00.213Z,0.00
2023-05-02T02:17:00.443Z,0.00
2023-05-02T02:18:00.301Z,0.00
2023-05-02T02:19:00.307Z,0.00
2023-05-02T02:20:00.547Z,0.00
2023-05-02T02:21:00.358Z,0.00
2023-05-02T02:22:00.366Z,0.00
2023-05-02T02:23:00.383Z,0.00
2023-05-02T02:24:00.437Z,0.00
2023-05-02T02:25:00.448Z,0.00
2023-05-02T02:26:00.457Z,0.00
2023-05-02T02:27:00.495Z,0.00
2023-05-02T02:28:00.488Z,0.00
2023-05-02T02:29:00.530Z,0.00
2023-05-02T02:30:00.774Z,0.00
2023-05-02T02:31:00.592Z,0.00
2023-05-02T02:32:00.606Z,0.00
2023-05-02T02:33:00.655Z,0.00
2023-05-02T02:34:00.653Z,0.00
2023-05-02T02:35:00.677Z,0.00
2023-05-02T02:36:00.685Z,0.00
2023-05-02T02:37:00.701Z,0.00
2023-05-02T02:38:00.733Z,0.00
2023-05-02T02:39:00.748Z,0.00
2023-05-02T02:40:01.154Z,0.00
2023-05-02T02:41:00.799Z,0.00
2023-05-02T02:42:00.812Z,0.00
2023-05-02T02:43:00.840Z,0.00
2023-05-02T02:44:00.880Z,0.00
2023-05-02T02:45:00.891Z,0.00
2023-05-02T02:46:00.919Z,0.00
2023-05-02T02:47:00.946Z,0.00
2023-05-02T02:48:00.992Z,0.00
2023-05-02T02:49:00.982Z,0.00
2023-05-02T02:50:01.249Z,0.00
2023-05-02T02:51:01.011Z,0.00
2023-05-02T02:52:01.038Z,0.00
2023-05-02T02:53:01.078Z,0.00
2023-05-02T02:54:01.139Z,0.00
2023-05-02T02:55:01.107Z,0.00
2023-05-02T02:56:01.127Z,0.00
2023-05-02T02:57:01.146Z,0.00
2023-05-02T02:58:01.212Z,0.00
2023-05-02T02:59:01.192Z,0.00
2023-05-02T03:00:01.606Z,0.00
2023-05-02T03:01:01.259Z,0.00
2023-05-02T03:02:01.288Z,0.00
2023-05-02T03:03:01.308Z,0.00
2023-05-02T03:04:01.329Z,0.00
2023-05-02T03:05:01.332Z,0.00
2023-05-02T03:06:01.393Z,0.00
2023-05-02T03:07:01.375Z,0.00
2023-05-02T03:08:01.416Z,0.00
2023-05-02T03:09:01.422Z,0.00
2023-05-02T03:10:01.849Z,0.00
2023-05-02T03:11:01.487Z,0.00
2023-05-02T03:12:01.506Z,0.00
2023-05-02T03:13:01.602Z,0.00
2023-05-02T03:14:01.545Z,0.00
2023-05-02T03:15:01.572Z,0.00
2023-05-02T03:16:01.602Z,0.00
2023-05-02T03:17:01.619Z,0.00
2023-05-02T03:18:01.712Z,0.00
2023-05-02T03:19:01.644Z,0.00
2023-05-02T03:20:01.969Z,0.00
2023-05-02T03:21:01.703Z,0.00
2023-05-02T03:22:01.716Z,0.00
2023-05-02T03:23:01.793Z,0.00
2023-05-02T03:24:01.762Z,0.00
2023-05-02T03:25:01.825Z,0.00
2023-05-02T03:26:01.807Z,0.00
2023-05-02T03:27:01.884Z,0.00
2023-05-02T03:28:01.865Z,0.00
2023-05-02T03:29:01.886Z,4.00
2023-05-02T03:30:02.100Z,4.00
2023-05-02T03:31:01.995Z,4.00
2023-05-02T03:32:02.114Z,4.00
2023-05-02T03:33:02.019Z,4.00
2023-05-02T03:34:01.994Z,4.00
2023-05-02T03:35:02.015Z,4.00
2023-05-02T03:36:02.066Z,0.00
2023-05-02T03:37:02.067Z,4.00
2023-05-02T03:38:02.086Z,4.00
2023-05-02T03:39:02.137Z,4.00
2023-05-02T03:40:02.367Z,4.00
2023-05-02T03:41:02.160Z,4.00
2023-05-02T03:42:02.176Z,8.00
2023-05-02T03:43:02.202Z,8.00
2023-05-02T03:44:02.225Z,8.00
2023-05-02T03:45:02.254Z,12.00
2023-05-02T03:46:02.268Z,12.00
2023-05-02T03:47:02.321Z,16.00
2023-05-02T03:48:02.378Z,16.00
2023-05-02T03:49:02.335Z,16.00
2023-05-02T03:50:02.600Z,20.00
2023-05-02T03:51:02.381Z,20.00
2023-05-02T03:52:02.431Z,24.00
2023-05-02T03:53:02.426Z,24.00
2023-05-02T03:54:02.492Z,24.00
2023-05-02T03:55:02.493Z,24.00
2023-05-02T03:56:02.528Z,24.00
2023-05-02T03:57:02.522Z,32.00
2023-05-02T03:58:02.549Z,36.00
2023-05-02T03:59:02.565Z,44.00
2023-05-02T04:00:02.804Z,44.00
2023-05-02T04:01:02.670Z,48.00
2023-05-02T04:02:02.725Z,52.00
2023-05-02T04:03:02.716Z,56.00
2023-05-02T04:04:02.749Z,64.00
2023-05-02T04:05:02.715Z,72.00
2023-05-02T04:06:02.774Z,76.00
2023-05-02T04:07:02.751Z,92.00
2023-05-02T04:08:02.781Z,92.00
2023-05-02T04:09:02.833Z,84.00
2023-05-02T04:10:03.176Z,84.00
2023-05-02T04:11:02.845Z,80.00
2023-05-02T04:12:02.866Z,88.00
2023-05-02T04:13:02.888Z,80.00
2023-05-02T04:14:02.920Z,80.00
2023-05-02T04:15:02.945Z,88.00
2023-05-02T04:16:02.974Z,100.00
2023-05-02T04:17:02.991Z,104.00
2023-05-02T04:18:03.063Z,100.00
2023-05-02T04:19:03.032Z,92.00
2023-05-02T04:20:05.313Z,104.00
2023-05-02T04:21:03.072Z,116.00
2023-05-02T04:22:03.097Z,156.00
2023-05-02T04:23:03.141Z,172.00
2023-05-02T04:24:03.139Z,232.00
2023-05-02T04:25:03.160Z,264.00
2023-05-02T04:26:03.187Z,308.00
2023-05-02T04:27:03.214Z,272.00
2023-05-02T04:28:03.233Z,264.00
2023-05-02T04:29:03.263Z,256.00
2023-05-02T04:30:03.740Z,296.00
2023-05-02T04:31:03.337Z,272.00
2023-05-02T04:32:03.347Z,212.00
2023-05-02T04:33:03.445Z,208.00
2023-05-02T04:34:03.367Z,252.00
2023-05-02T04:35:03.383Z,268.00
2023-05-02T04:36:03.410Z,348.00
2023-05-02T04:37:03.456Z,376.00
2023-05-02T04:38:03.454Z,352.00
2023-05-02T04:39:03.477Z,324.00
2023-05-02T04:40:03.521Z,324.00
2023-05-02T04:41:08.552Z,312.00
2023-05-02T04:42:03.544Z,320.00
2023-05-02T04:43:03.568Z,416.00
2023-05-02T04:44:03.597Z,448.00
2023-05-02T04:45:03.611Z,488.00
2023-05-02T04:46:03.653Z,512.00
2023-05-02T04:47:03.652Z,484.00
2023-05-02T04:48:03.752Z,496.00
2023-05-02T04:49:03.723Z,588.00
2023-05-02T04:50:03.764Z,556.00
2023-05-02T04:51:03.867Z,520.00
2023-05-02T04:52:03.781Z,568.00
2023-05-02T04:53:03.795Z,456.00
2023-05-02T04:54:03.811Z,360.00
2023-05-02T04:55:03.870Z,324.00
2023-05-02T04:56:03.889Z,320.00
2023-05-02T04:57:03.897Z,272.00
2023-05-02T04:58:03.916Z,268.00
2023-05-02T04:59:03.930Z,292.00
2023-05-02T05:00:04.057Z,268.00
2023-05-02T05:01:03.975Z,280.00
2023-05-02T05:02:04.107Z,384.00
2023-05-02T05:03:04.119Z,528.00
2023-05-02T05:04:04.207Z,604.00
2023-05-02T05:05:04.138Z,520.00
2023-05-02T05:06:04.118Z,452.00
2023-05-02T05:07:04.113Z,568.00
2023-05-02T05:08:04.145Z,644.00
2023-05-02T05:09:04.164Z,640.00
2023-05-02T05:10:04.183Z,624.00
2023-05-02T05:11:04.206Z,692.00
2023-05-02T05:12:04.226Z,768.00
2023-05-02T05:13:04.253Z,784.00
2023-05-02T05:14:04.302Z,772.00
2023-05-02T05:15:04.319Z,784.00
2023-05-02T05:16:04.379Z,768.00
2023-05-02T05:17:04.344Z,756.00
2023-05-02T05:18:04.402Z,748.00
2023-05-02T05:19:04.387Z,752.00
2023-05-02T05:20:04.417Z,788.00
2023-05-02T05:21:04.475Z,844.00
2023-05-02T05:22:04.450Z,1008.00
2023-05-02T05:23:04.474Z,1192.00
2023-05-02T05:24:04.521Z,1320.00
2023-05-02T05:25:04.520Z,1352.00
2023-05-02T05:26:04.541Z,1272.00
2023-05-02T05:27:04.572Z,1228.00
2023-05-02T05:28:04.617Z,1292.00
2023-05-02T05:29:04.610Z,1340.00
2023-05-02T05:30:04.626Z,1276.00
2023-05-02T05:31:04.680Z,1200.00
2023-05-02T05:32:04.713Z,1148.00
2023-05-02T05:33:04.741Z,1120.00
2023-05-02T05:34:04.782Z,1092.00
2023-05-02T05:35:04.749Z,1088.00
2023-05-02T05:36:04.770Z,1140.00
2023-05-02T05:37:04.783Z,1244.00
2023-05-02T05:38:04.830Z,1404.00
2023-05-02T05:39:04.847Z,1600.00
2023-05-02T05:40:04.961Z,1820.00
2023-05-02T05:41:04.905Z,2104.00
2023-05-02T05:42:04.896Z,2360.00
2023-05-02T05:43:04.941Z,2556.00
2023-05-02T05:44:04.941Z,2708.00
2023-05-02T05:45:04.973Z,2808.00
2023-05-02T05:46:05.019Z,2812.00
2023-05-02T05:47:05.065Z,2776.00
2023-05-02T05:48:05.121Z,2876.00
2023-05-02T05:49:05.068Z,3128.00
2023-05-02T05:50:05.078Z,3396.00
2023-05-02T05:51:05.097Z,3552.00
2023-05-02T05:52:05.137Z,3660.00
2023-05-02T05:53:05.142Z,3704.00
2023-05-02T05:54:05.235Z,3720.00
2023-05-02T05:55:05.230Z,3744.00
2023-05-02T05:56:05.212Z,3744.00
2023-05-02T05:57:05.236Z,3716.00
2023-05-02T05:58:05.266Z,3752.00
2023-05-02T05:59:05.284Z,3804.00
2023-05-02T06:00:05.320Z,3784.00
2023-05-02T06:01:05.348Z,3716.00
2023-05-02T06:02:05.374Z,3692.00
2023-05-02T06:03:07.420Z,3692.00
2023-05-02T06:04:05.470Z,3492.00
2023-05-02T06:05:05.503Z,3496.00
2023-05-02T06:06:05.488Z,3540.00
2023-05-02T06:07:05.468Z,3116.00
2023-05-02T06:08:05.490Z,2760.00
2023-05-02T06:09:05.515Z,2660.00
2023-05-02T06:10:05.533Z,2440.00
2023-05-02T06:11:05.560Z,2192.00
2023-05-02T06:12:05.592Z,1948.00
2023-05-02T06:13:05.609Z,1832.00
2023-05-02T06:14:05.634Z,1996.00
2023-05-02T06:15:05.684Z,2344.00
2023-05-02T06:16:05.723Z,2280.00
2023-05-02T06:17:05.702Z,2152.00
2023-05-02T06:18:05.762Z,2068.00
2023-05-02T06:19:05.750Z,1696.00
2023-05-02T06:20:05.767Z,1428.00
2023-05-02T06:21:05.789Z,1408.00
2023-05-02T06:22:05.811Z,1240.00
2023-05-02T06:23:05.829Z,1084.00
2023-05-02T06:24:05.862Z,1144.00
2023-05-02T06:25:05.878Z,1288.00
2023-05-02T06:26:05.989Z,1576.00
2023-05-02T06:27:06.226Z,1876.00
2023-05-02T06:28:05.952Z,2208.00
2023-05-02T06:29:05.975Z,2424.00
2023-05-02T06:30:06.051Z,3008.00
2023-05-02T06:31:06.191Z,3616.00
2023-05-02T06:32:06.151Z,4076.00
2023-05-02T06:33:06.097Z,4700.00
2023-05-02T06:34:06.081Z,5280.00
2023-05-02T06:35:06.112Z,6020.00
2023-05-02T06:36:06.149Z,6892.00
2023-05-02T06:37:06.157Z,7080.00
2023-05-02T06:38:06.183Z,6772.00
2023-05-02T06:39:06.190Z,6048.00
2023-05-02T06:40:06.220Z,5592.00
2023-05-02T06:41:06.240Z,5360.00
2023-05-02T06:42:06.265Z,5196.00
2023-05-02T06:43:06.281Z,5064.00
2023-05-02T06:44:06.312Z,4684.00
2023-05-02T06:45:06.344Z,4452.00
2023-05-02T06:46:06.349Z,4240.00
2023-05-02T06:47:06.477Z,4400.00
2023-05-02T06:48:06.467Z,4584.00
2023-05-02T06:49:06.436Z,4648.00
2023-05-02T06:50:06.441Z,4868.00
2023-05-02T06:51:06.462Z,5060.00
2023-05-02T06:52:06.486Z,5016.00
2023-05-02T06:53:06.511Z,4276.00
2023-05-02T06:54:06.534Z,3800.00
2023-05-02T06:55:06.553Z,4060.00
2023-05-02T06:56:06.586Z,4380.00
2023-05-02T06:57:06.627Z,4456.00
2023-05-02T06:58:06.627Z,4400.00
2023-05-02T06:59:06.652Z,4292.00
2023-05-02T07:00:06.664Z,4312.00
2023-05-02T07:01:06.751Z,4320.00
2023-05-02T07:02:06.707Z,4184.00
2023-05-02T07:03:06.749Z,4196.00
2023-05-02T07:04:06.828Z,4160.00
2023-05-02T07:05:06.782Z,4172.00
2023-05-02T07:06:06.840Z,4156.00
2023-05-02T07:07:06.824Z,4304.00
2023-05-02T07:08:06.839Z,4524.00
2023-05-02T07:09:06.875Z,4916.00
2023-05-02T07:10:06.888Z,5496.00
2023-05-02T07:11:06.911Z,6092.00
2023-05-02T07:12:07.230Z,6540.00
2023-05-02T07:13:06.951Z,6588.00
2023-05-02T07:14:06.977Z,6456.00
2023-05-02T07:15:06.998Z,6704.00
2023-05-02T07:16:07.055Z,6788.00
2023-05-02T07:17:07.201Z,6524.00
2023-05-02T07:18:07.111Z,6376.00
2023-05-02T07:19:07.126Z,6420.00
2023-05-02T07:20:07.119Z,6256.00
2023-05-02T07:21:07.130Z,5980.00
2023-05-02T07:22:07.155Z,5928.00
2023-05-02T07:23:07.210Z,6068.00
2023-05-02T07:24:07.223Z,6184.00
2023-05-02T07:25:07.214Z,6372.00
2023-05-02T07:26:07.236Z,6676.00
2023-05-02T07:27:07.278Z,7012.00
2023-05-02T07:28:07.308Z,7216.00
2023-05-02T07:29:07.307Z,7220.00
2023-05-02T07:30:07.330Z,7236.00
2023-05-02T07:31:07.366Z,7428.00
2023-05-02T07:32:07.437Z,7496.00
2023-05-02T07:33:07.519Z,7460.00
2023-05-02T07:34:07.421Z,7548.00
2023-05-02T07:35:07.450Z,7664.00
2023-05-02T07:36:07.470Z,7912.00
2023-05-02T07:37:07.485Z,8040.00
2023-05-02T07:38:07.512Z,7980.00
2023-05-02T07:39:07.548Z,8472.00
2023-05-02T07:40:07.568Z,8780.00
2023-05-02T07:41:07.582Z,9236.00
2023-05-02T07:42:07.622Z,9496.00
2023-05-02T07:43:08.784Z,9816.00
2023-05-02T07:44:07.656Z,9200.00
2023-05-02T07:45:07.670Z,7936.00
2023-05-02T07:46:07.796Z,8096.00
2023-05-02T07:47:07.719Z,8696.00
2023-05-02T07:48:07.790Z,8996.00
2023-05-02T07:49:07.757Z,9284.00
2023-05-02T07:50:07.800Z,8892.00
2023-05-02T07:51:07.806Z,8912.00
2023-05-02T07:52:07.830Z,9512.00
2023-05-02T07:53:07.854Z,8492.00
2023-05-02T07:54:07.874Z,6940.00
2023-05-02T07:55:07.899Z,5896.00
2023-05-02T07:56:07.934Z,5780.00
2023-05-02T07:57:07.946Z,6168.00
2023-05-02T07:58:07.977Z,6172.00
2023-05-02T07:59:07.994Z,6132.00
2023-05-02T08:00:08.016Z,5916.00
2023-05-02T08:01:08.042Z,5532.00
2023-05-02T08:02:08.110Z,5672.00
2023-05-02T08:03:08.215Z,5144.00
2023-05-02T08:04:08.315Z,5144.00
2023-05-02T08:05:08.263Z,5056.00
2023-05-02T08:06:08.234Z,4976.00
2023-05-02T08:07:08.165Z,5168.00
2023-05-02T08:08:08.210Z,5504.00
2023-05-02T08:09:08.229Z,5484.00
2023-05-02T08:10:08.243Z,5300.00
2023-05-02T08:11:08.263Z,5324.00
2023-05-02T08:12:08.285Z,5396.00
2023-05-02T08:13:08.330Z,5064.00
2023-05-02T08:14:08.331Z,4656.00
2023-05-02T08:15:08.357Z,4464.00
2023-05-02T08:16:08.441Z,4580.00
2023-05-02T08:17:08.402Z,6048.00
2023-05-02T08:18:08.471Z,6168.00
2023-05-02T08:19:08.437Z,5828.00
2023-05-02T08:20:08.472Z,6472.00
2023-05-02T08:21:08.484Z,6156.00
2023-05-02T08:22:08.514Z,5824.00
2023-05-02T08:23:08.525Z,5572.00
2023-05-02T08:24:08.553Z,5164.00
2023-05-02T08:25:08.602Z,5060.00
2023-05-02T08:26:08.600Z,4740.00
2023-05-02T08:27:08.614Z,4448.00
2023-05-02T08:28:08.647Z,4436.00
2023-05-02T08:29:08.667Z,4432.00
2023-05-02T08:30:09.046Z,4640.00
2023-05-02T08:31:08.757Z,4940.00
2023-05-02T08:32:08.761Z,6332.00
2023-05-02T08:33:08.759Z,9108.00
2023-05-02T08:34:08.783Z,12588.00
2023-05-02T08:35:08.814Z,13700.00
2023-05-02T08:36:08.951Z,12356.00
2023-05-02T08:37:08.846Z,8292.00
2023-05-02T08:38:08.862Z,6000.00
2023-05-02T08:39:08.893Z,5684.00
2023-05-02T08:40:08.922Z,5996.00
2023-05-02T08:41:08.953Z,6220.00
2023-05-02T08:42:08.957Z,4860.00
2023-05-02T08:43:08.976Z,4440.00
2023-05-02T08:44:09.028Z,4492.00
2023-05-02T08:45:09.026Z,4708.00
2023-05-02T08:46:09.034Z,4624.00
2023-05-02T08:47:09.082Z,4540.00
2023-05-02T08:48:09.165Z,4696.00
2023-05-02T08:49:09.110Z,5404.00
2023-05-02T08:50:09.138Z,6576.00
2023-05-02T08:51:09.157Z,9144.00
2023-05-02T08:52:09.174Z,13000.00
2023-05-02T08:53:09.194Z,14028.00
2023-05-02T08:54:09.215Z,12960.00
2023-05-02T08:55:09.238Z,10644.00
2023-05-02T08:56:09.263Z,9724.00
2023-05-02T08:57:09.287Z,9576.00
2023-05-02T08:58:09.312Z,9744.00
2023-05-02T08:59:09.329Z,10296.00
2023-05-02T09:00:09.353Z,10168.00
2023-05-02T09:01:09.406Z,9396.00
2023-05-02T09:02:09.402Z,8960.00
2023-05-02T09:03:09.472Z,9328.00
2023-05-02T09:04:09.505Z,9360.00
2023-05-02T09:05:09.472Z,8980.00
2023-05-02T09:06:09.528Z,9352.00
2023-05-02T09:07:10.797Z,9552.00
2023-05-02T09:08:09.533Z,9444.00
2023-05-02T09:09:09.563Z,10892.00
2023-05-02T09:10:09.584Z,11548.00
2023-05-02T09:11:09.609Z,10964.00
2023-05-02T09:12:09.648Z,9748.00
2023-05-02T09:13:09.677Z,10252.00
2023-05-02T09:14:09.713Z,10676.00
2023-05-02T09:15:09.701Z,10340.00
2023-05-02T09:16:09.758Z,10652.00
2023-05-02T09:17:09.859Z,11600.00
2023-05-02T09:18:09.820Z,12752.00
2023-05-02T09:19:09.794Z,13712.00
2023-05-02T09:20:09.827Z,14256.00
2023-05-02T09:21:09.850Z,12620.00
2023-05-02T09:22:09.864Z,11028.00
2023-05-02T09:23:09.913Z,10548.00
2023-05-02T09:24:09.913Z,10368.00
2023-05-02T09:25:09.949Z,10248.00
2023-05-02T09:26:09.958Z,10380.00
2023-05-02T09:27:10.006Z,10964.00
2023-05-02T09:28:10.013Z,11516.00
2023-05-02T09:29:10.032Z,10824.00
2023-05-02T09:30:10.082Z,9608.00
2023-05-02T09:31:10.175Z,8892.00
2023-05-02T09:32:10.250Z,9808.00
2023-05-02T09:33:10.179Z,10240.00
2023-05-02T09:34:10.150Z,10052.00
2023-05-02T09:35:10.172Z,10352.00
2023-05-02T09:36:10.195Z,11348.00
2023-05-02T09:37:10.348Z,11884.00
2023-05-02T09:38:10.240Z,10560.00
2023-05-02T09:39:10.263Z,9112.00
2023-05-02T09:40:10.288Z,8252.00
2023-05-02T09:41:10.331Z,7984.00
2023-05-02T09:42:10.340Z,8184.00
2023-05-02T09:43:10.361Z,8520.00
2023-05-02T09:44:10.381Z,8652.00
2023-05-02T09:45:10.418Z,8828.00
2023-05-02T09:46:10.601Z,9220.00
2023-05-02T09:47:10.469Z,9588.00
2023-05-02T09:48:10.515Z,10008.00
2023-05-02T09:49:10.501Z,11080.00
2023-05-02T09:50:10.554Z,12572.00
2023-05-02T09:51:10.547Z,14440.00
2023-05-02T09:52:10.574Z,16696.00
2023-05-02T09:53:10.596Z,17696.00
2023-05-02T09:54:10.616Z,18240.00
2023-05-02T09:55:10.661Z,18464.00
2023-05-02T09:56:10.669Z,18336.00
2023-05-02T09:57:10.814Z,17952.00
2023-05-02T09:58:10.713Z,16724.00
2023-05-02T09:59:10.747Z,14236.00
2023-05-02T10:00:10.798Z,12088.00
2023-05-02T10:01:10.815Z,11868.00
2023-05-02T10:02:10.809Z,12044.00
2023-05-02T10:03:10.872Z,10284.00
2023-05-02T10:04:10.896Z,9148.00
2023-05-02T10:05:10.898Z,8688.00
2023-05-02T10:06:10.934Z,8648.00
2023-05-02T10:07:11.054Z,9264.00
2023-05-02T10:08:10.970Z,10220.00
2023-05-02T10:09:10.980Z,10980.00
2023-05-02T10:10:11.004Z,11500.00
2023-05-02T10:11:11.030Z,11384.00
2023-05-02T10:12:11.062Z,11188.00
2023-05-02T10:13:11.086Z,11180.00
2023-05-02T10:14:11.309Z,10912.00
2023-05-02T10:15:11.127Z,10684.00
2023-05-02T10:16:11.185Z,10484.00
2023-05-02T10:17:11.180Z,10272.00
2023-05-02T10:18:11.263Z,10364.00
2023-05-02T10:19:11.224Z,10756.00
2023-05-02T10:20:11.247Z,10492.00
2023-05-02T10:21:11.273Z,10044.00
2023-05-02T10:22:11.291Z,10068.00
2023-05-02T10:23:11.317Z,9952.00
2023-05-02T10:24:11.345Z,10752.00
2023-05-02T10:25:11.380Z,12200.00
2023-05-02T10:26:11.390Z,13048.00
2023-05-02T10:27:11.418Z,13184.00
2023-05-02T10:28:11.520Z,13272.00
2023-05-02T10:29:11.484Z,14272.00
2023-05-02T10:30:11.488Z,16200.00
2023-05-02T10:31:11.568Z,17632.00
2023-05-02T10:32:11.581Z,17952.00
2023-05-02T10:33:11.605Z,17888.00
2023-05-02T10:34:11.596Z,17344.00
2023-05-02T10:35:11.609Z,17056.00
2023-05-02T10:36:11.638Z,15888.00
2023-05-02T10:37:11.674Z,14604.00
2023-05-02T10:38:11.690Z,14364.00
2023-05-02T10:39:11.710Z,13908.00
2023-05-02T10:40:11.768Z,13524.00
2023-05-02T10:41:11.754Z,14060.00
2023-05-02T10:42:11.791Z,15784.00
2023-05-02T10:43:11.820Z,17856.00
2023-05-02T10:44:11.842Z,18944.00
2023-05-02T10:45:11.851Z,18496.00
2023-05-02T10:46:11.925Z,17920.00
2023-05-02T10:47:11.912Z,17792.00
2023-05-02T10:48:11.977Z,17696.00
2023-05-02T10:49:11.973Z,17824.00
2023-05-02T10:50:11.970Z,18368.00
2023-05-02T10:51:11.994Z,18016.00
2023-05-02T10:52:12.016Z,17024.00
2023-05-02T10:53:12.039Z,15900.00
2023-05-02T10:54:12.066Z,14476.00
2023-05-02T10:55:12.092Z,14512.00
2023-05-02T10:56:12.117Z,15552.00
2023-05-02T10:57:12.175Z,16440.00
2023-05-02T10:58:12.169Z,16184.00
2023-05-02T10:59:12.192Z,15464.00
2023-05-02T11:00:12.213Z,15284.00
2023-05-02T11:01:12.319Z,14744.00
2023-05-02T11:02:12.292Z,13924.00
2023-05-02T11:03:12.350Z,13648.00
2023-05-02T11:04:12.316Z,14132.00
2023-05-02T11:05:12.359Z,15168.00
2023-05-02T11:06:12.435Z,16072.00
2023-05-02T11:07:12.412Z,16368.00
2023-05-02T11:08:12.415Z,16540.00
2023-05-02T11:09:12.440Z,16724.00
2023-05-02T11:10:12.487Z,17024.00
2023-05-02T11:11:12.491Z,16688.00
2023-05-02T11:12:12.516Z,15984.00
2023-05-02T11:13:12.542Z,15348.00
2023-05-02T11:14:13.582Z,14772.00
2023-05-02T11:15:12.623Z,14260.00
2023-05-02T11:16:12.631Z,13912.00
2023-05-02T11:17:12.650Z,13632.00
2023-05-02T11:18:12.952Z,12988.00
2023-05-02T11:19:12.693Z,11984.00
2023-05-02T11:20:12.785Z,11032.00
2023-05-02T11:21:12.756Z,10396.00
2023-05-02T11:22:12.770Z,10152.00
2023-05-02T11:23:12.797Z,10184.00
2023-05-02T11:24:12.846Z,10216.00
2023-05-02T11:25:12.846Z,10268.00
2023-05-02T11:26:12.871Z,10332.00
2023-05-02T11:27:12.896Z,10480.00
2023-05-02T11:28:12.920Z,10572.00
2023-05-02T11:29:12.949Z,10612.00
2023-05-02T11:30:13.010Z,10660.00
2023-05-02T11:31:12.993Z,10860.00
2023-05-02T11:32:13.090Z,11132.00
2023-05-02T11:33:13.103Z,11424.00
2023-05-02T11:34:13.066Z,11576.00
2023-05-02T11:35:13.095Z,11624.00
2023-05-02T11:36:13.116Z,11616.00
2023-05-02T11:37:13.140Z,11540.00
2023-05-02T11:38:13.160Z,11624.00
2023-05-02T11:39:13.188Z,11820.00
2023-05-02T11:40:13.241Z,12020.00
2023-05-02T11:41:13.259Z,12252.00
2023-05-02T11:42:13.261Z,12536.00
2023-05-02T11:43:13.295Z,12756.00
2023-05-02T11:44:13.311Z,12816.00
2023-05-02T11:45:13.336Z,12756.00
2023-05-02T11:46:13.402Z,12692.00
2023-05-02T11:47:13.392Z,12824.00
2023-05-02T11:48:13.454Z,13248.00
2023-05-02T11:49:14.790Z,13808.00
2023-05-02T11:50:13.466Z,14352.00
2023-05-02T11:51:13.488Z,14464.00
2023-05-02T11:52:13.506Z,14132.00
2023-05-02T11:53:13.531Z,13812.00
2023-05-02T11:54:13.556Z,13492.00
2023-05-02T11:55:13.579Z,13152.00
2023-05-02T11:56:13.604Z,13092.00
2023-05-02T11:57:13.628Z,13488.00
2023-05-02T11:58:13.658Z,14004.00
2023-05-02T11:59:13.678Z,14312.00
2023-05-02T12:00:13.727Z,14508.00
2023-05-02T12:01:13.862Z,14736.00
2023-05-02T12:02:13.794Z,14800.00
2023-05-02T12:03:13.864Z,14632.00
2023-05-02T12:04:13.798Z,14328.00
2023-05-02T12:05:13.887Z,14056.00
2023-05-02T12:06:14.153Z,13908.00
2023-05-02T12:07:13.966Z,13820.00
2023-05-02T12:08:13.895Z,13784.00
2023-05-02T12:09:13.948Z,13920.00
2023-05-02T12:10:13.960Z,14092.00
2023-05-02T12:11:13.974Z,14280.00
2023-05-02T12:12:13.999Z,14456.00
2023-05-02T12:13:14.028Z,14592.00
2023-05-02T12:14:14.055Z,14804.00
2023-05-02T12:15:14.067Z,15124.00
2023-05-02T12:16:14.155Z,15508.00
2023-05-02T12:17:14.142Z,15860.00
2023-05-02T12:18:14.154Z,16028.00
2023-05-02T12:19:14.178Z,16096.00
2023-05-02T12:20:14.200Z,16004.00
2023-05-02T12:21:14.217Z,15776.00
2023-05-02T12:22:14.245Z,15520.00
2023-05-02T12:23:14.278Z,15404.00
2023-05-02T12:24:14.298Z,15216.00
2023-05-02T12:25:14.323Z,15076.00